createdAt,value
2017-07-09T00:01:54.227Z,53.80
2017-07-09T00:04:21.989Z,53.90
2017-07-09T00:06:49.759Z,53.90
2017-07-09T00:09:17.619Z,54.00
2017-07-09T00:11:45.380Z,54.00
2017-07-09T00:14:13.263Z,53.90
2017-07-09T00:16:41.134Z,53.90
2017-07-09T00:19:08.997Z,53.80
2017-07-09T00:21:36.853Z,53.80
2017-07-09T00:24:04.723Z,53.80
2017-07-09T00:26:32.597Z,53.80
2017-07-09T00:29:00.461Z,53.80
2017-07-09T00:31:28.214Z,54.30
2017-07-09T00:33:55.922Z,54.40
2017-07-09T00:36:24.495Z,54.70
2017-07-09T00:38:52.992Z,55.00
2017-07-09T00:41:20.804Z,55.00
2017-07-09T00:43:48.503Z,54.90
2017-07-09T00:46:17.050Z,55.40
2017-07-09T00:48:44.918Z,54.70
2017-07-09T00:51:12.683Z,54.70
2017-07-09T00:53:40.557Z,54.90
2017-07-09T00:56:08.312Z,54.90
2017-07-09T00:58:36.086Z,54.80
2017-07-09T01:01:03.959Z,54.80
2017-07-09T01:03:31.827Z,55.20
2017-07-09T01:05:59.581Z,55.10
2017-07-09T01:08:27.375Z,55.70
2017-07-09T01:10:55.844Z,55.60
2017-07-09T01:13:23.584Z,55.60
2017-07-09T01:15:51.454Z,55.80
2017-07-09T01:18:19.147Z,56.00
2017-07-09T01:20:47.703Z,55.80
2017-07-09T01:23:15.562Z,55.70
2017-07-09T01:25:43.327Z,55.50
2017-07-09T01:28:10.987Z,55.50
2017-07-09T01:30:38.781Z,55.20
2017-07-09T01:33:06.420Z,55.40
2017-07-09T01:35:34.056Z,55.50
2017-07-09T01:38:01.733Z,55.80
2017-07-09T01:40:29.402Z,55.70
2017-07-09T01:42:57.166Z,56.00
2017-07-09T01:45:24.930Z,56.00
2017-07-09T01:47:52.620Z,56.30
2017-07-09T01:50:20.459Z,56.60
2017-07-09T01:52:48.222Z,56.60
2017-07-09T01:55:15.987Z,56.30
2017-07-09T01:57:43.853Z,56.30
2017-07-09T02:00:11.536Z,56.40
2017-07-09T02:02:39.168Z,56.40
2017-07-09T02:05:06.831Z,56.60
2017-07-09T02:07:34.602Z,56.80
2017-07-09T02:10:02.369Z,57.20
2017-07-09T02:12:30.154Z,56.60
2017-07-09T02:14:57.817Z,56.70
2017-07-09T02:17:25.559Z,56.80
2017-07-09T02:19:53.232Z,56.90
2017-07-09T02:22:20.899Z,57.00
2017-07-09T02:24:48.565Z,57.20
2017-07-09T02:27:16.323Z,57.10
2017-07-09T02:29:44.070Z,56.90
2017-07-09T02:32:11.937Z,56.50
2017-07-09T02:34:39.625Z,56.30
2017-07-09T02:37:07.364Z,56.00
2017-07-09T02:39:35.234Z,56.00
2017-07-09T02:42:02.995Z,55.90
2017-07-09T02:44:30.659Z,55.60
2017-07-09T02:46:58.320Z,55.40
2017-07-09T02:49:26.080Z,55.70
2017-07-09T02:51:53.740Z,56.00
2017-07-09T02:54:21.371Z,56.00
2017-07-09T02:56:49.171Z,55.60
2017-07-09T02:59:16.933Z,55.70
2017-07-09T03:01:44.700Z,55.50
2017-07-09T03:04:12.465Z,55.70
2017-07-09T03:06:40.149Z,55.90
2017-07-09T03:09:07.993Z,56.00
2017-07-09T03:11:35.687Z,56.30
2017-07-09T03:14:04.239Z,57.00
2017-07-09T03:16:32.003Z,56.60
2017-07-09T03:18:59.657Z,56.60
2017-07-09T03:21:27.428Z,56.60
2017-07-09T03:23:55.116Z,56.50
2017-07-09T03:26:22.956Z,56.40
2017-07-09T03:28:50.723Z,56.30
2017-07-09T03:31:18.588Z,56.20
2017-07-09T03:33:46.353Z,56.00
2017-07-09T03:36:14.117Z,56.00
2017-07-09T03:38:41.780Z,56.10
2017-07-09T03:41:09.459Z,56.00
2017-07-09T03:43:37.307Z,55.80
2017-07-09T03:46:05.073Z,55.70
2017-07-09T03:48:32.730Z,55.80
2017-07-09T03:51:00.498Z,55.90
2017-07-09T03:53:28.122Z,55.90
2017-07-09T03:55:55.922Z,55.60
2017-07-09T03:58:23.685Z,55.80
2017-07-09T04:00:51.555Z,56.20
2017-07-09T04:03:19.320Z,56.40
2017-07-09T04:05:47.083Z,56.40
2017-07-09T04:08:14.847Z,56.50
2017-07-09T04:10:42.613Z,56.10
2017-07-09T04:13:10.284Z,56.40
2017-07-09T04:15:38.038Z,56.80
2017-07-09T04:18:05.902Z,57.10
2017-07-09T04:20:33.668Z,57.60
2017-07-09T04:23:01.432Z,57.60
2017-07-09T04:25:29.101Z,57.60
2017-07-09T04:27:56.726Z,57.60
2017-07-09T04:30:24.452Z,57.60
2017-07-09T04:32:52.915Z,57.90
2017-07-09T04:35:20.746Z,57.70
2017-07-09T04:37:48.453Z,57.90
2017-07-09T04:40:16.189Z,57.80
2017-07-09T04:42:43.958Z,58.10
2017-07-09T04:45:11.721Z,58.20
2017-07-09T04:47:39.486Z,58.20
2017-07-09T04:50:07.248Z,58.30
2017-07-09T04:52:34.931Z,58.40
2017-07-09T04:55:02.674Z,58.50
2017-07-09T04:57:30.303Z,58.40
2017-07-09T04:59:58.001Z,58.60
2017-07-09T05:02:25.761Z,58.90
2017-07-09T05:04:53.449Z,59.80
2017-07-09T05:07:21.190Z,61.90
2017-07-09T05:09:48.977Z,60.00
2017-07-09T05:12:16.714Z,59.90
2017-07-09T05:14:44.395Z,59.40
2017-07-09T05:17:12.174Z,59.70
2017-07-09T05:19:40.009Z,60.50
2017-07-09T05:22:07.771Z,61.20
2017-07-09T05:24:35.536Z,62.20
2017-07-09T05:27:03.405Z,61.30
2017-07-09T05:29:31.172Z,60.70
2017-07-09T05:31:58.808Z,59.80
2017-07-09T05:34:26.517Z,61.10
2017-07-09T05:36:54.147Z,60.30
2017-07-09T05:39:21.922Z,59.00
2017-07-09T05:41:49.680Z,59.80
2017-07-09T05:44:17.445Z,59.50
2017-07-09T05:46:45.211Z,59.60
2017-07-09T05:49:12.980Z,60.50
2017-07-09T05:51:40.661Z,58.60
2017-07-09T05:54:08.399Z,58.90
2017-07-09T05:56:36.164Z,58.90
2017-07-09T05:59:03.790Z,58.50
2017-07-09T06:01:31.593Z,58.00
2017-07-09T06:03:59.357Z,58.90
2017-07-09T06:06:27.121Z,59.80
2017-07-09T06:08:54.884Z,59.50
2017-07-09T06:11:22.567Z,58.20
2017-07-09T06:13:50.417Z,57.60
2017-07-09T06:16:18.047Z,58.20
2017-07-09T06:18:45.708Z,58.10
2017-07-09T06:21:13.500Z,58.00
2017-07-09T06:23:41.264Z,57.90
2017-07-09T06:26:09.032Z,57.10
2017-07-09T06:28:36.723Z,60.00
2017-07-09T06:31:05.275Z,55.90
2017-07-09T06:33:33.368Z,55.90
2017-07-09T06:36:01.217Z,55.30
2017-07-09T06:38:28.847Z,54.40
2017-07-09T06:40:56.569Z,56.00
2017-07-09T06:43:25.006Z,54.60
2017-07-09T06:45:52.696Z,54.90
2017-07-09T06:48:20.545Z,54.80
2017-07-09T06:50:48.229Z,55.40
2017-07-09T06:53:16.074Z,54.20
2017-07-09T06:55:43.756Z,56.20
2017-07-09T06:58:11.499Z,55.30
2017-07-09T07:00:39.181Z,53.90
2017-07-09T07:03:06.928Z,54.80
2017-07-09T07:05:34.596Z,54.90
2017-07-09T07:08:02.272Z,52.60
2017-07-09T07:10:29.902Z,53.20
2017-07-09T07:12:57.565Z,52.60
2017-07-09T07:15:25.266Z,53.30
2017-07-09T07:17:53.054Z,53.80
2017-07-09T07:20:20.875Z,52.90
2017-07-09T07:22:48.713Z,53.40
2017-07-09T07:25:16.395Z,52.60
2017-07-09T07:27:44.268Z,52.90
2017-07-09T07:30:12.043Z,53.30
2017-07-09T07:32:39.905Z,52.00
2017-07-09T07:35:07.773Z,50.70
2017-07-09T07:37:35.566Z,51.80
2017-07-09T07:40:04.230Z,51.50
2017-07-09T07:42:31.975Z,51.40
2017-07-09T07:44:59.841Z,49.40
2017-07-09T07:47:27.578Z,48.20
2017-07-09T07:49:55.385Z,48.70
2017-07-09T07:52:23.251Z,47.20
2017-07-09T07:54:51.056Z,47.60
2017-07-09T07:57:18.999Z,47.20
2017-07-09T07:59:47.659Z,47.10
2017-07-09T08:02:15.543Z,47.10
2017-07-09T08:04:43.283Z,47.90
2017-07-09T08:07:11.171Z,47.80
2017-07-09T08:09:39.040Z,48.00
2017-07-09T08:12:06.905Z,47.80
2017-07-09T08:14:34.768Z,47.80
2017-07-09T08:17:02.739Z,48.00
2017-07-09T08:19:30.605Z,48.10
2017-07-09T08:21:58.476Z,47.10
2017-07-09T08:24:26.291Z,47.50
2017-07-09T08:26:54.187Z,47.60
2017-07-09T08:29:22.007Z,45.20
2017-07-09T08:31:49.823Z,44.60
2017-07-09T08:34:17.688Z,45.70
2017-07-09T08:36:45.447Z,47.20
2017-07-09T08:39:13.330Z,46.10
2017-07-09T08:41:41.200Z,44.30
2017-07-09T08:44:09.033Z,45.60
2017-07-09T08:46:36.936Z,45.40
2017-07-09T08:49:04.800Z,44.20
2017-07-09T08:51:32.662Z,44.60
2017-07-09T08:54:00.459Z,45.70
2017-07-09T08:56:28.923Z,44.60
2017-07-09T08:58:57.533Z,45.70
2017-07-09T09:01:25.325Z,45.60
2017-07-09T09:03:53.230Z,45.90
2017-07-09T09:06:21.093Z,46.20
2017-07-09T09:08:48.951Z,46.00
2017-07-09T09:11:16.813Z,46.40
2017-07-09T09:13:44.575Z,45.40
2017-07-09T09:16:12.445Z,44.60
2017-07-09T09:18:40.310Z,45.50
2017-07-09T09:21:08.172Z,45.30
2017-07-09T09:23:35.949Z,43.90
2017-07-09T09:26:03.818Z,44.00
2017-07-09T09:28:31.690Z,45.20
2017-07-09T09:30:59.656Z,41.50
2017-07-09T09:33:27.495Z,40.70
2017-07-09T09:35:55.396Z,41.00
2017-07-09T09:38:23.264Z,42.00
2017-07-09T09:40:51.192Z,43.80
2017-07-09T09:43:19.100Z,43.00
2017-07-09T09:45:47.977Z,43.60
2017-07-09T09:48:16.509Z,43.90
2017-07-09T09:50:44.776Z,43.80
2017-07-09T09:53:12.922Z,43.50
2017-07-09T09:55:40.782Z,42.40
2017-07-09T09:58:08.551Z,42.50
2017-07-09T10:00:37.113Z,43.00
2017-07-09T10:03:04.987Z,42.70
2017-07-09T10:05:32.786Z,41.10
2017-07-09T10:08:01.441Z,41.70
2017-07-09T10:10:29.280Z,41.60
2017-07-09T10:12:56.982Z,38.80
2017-07-09T10:15:24.824Z,37.90
2017-07-09T10:17:52.538Z,38.80
2017-07-09T10:20:20.378Z,38.20
2017-07-09T10:22:48.140Z,38.60
2017-07-09T10:25:15.902Z,38.80
2017-07-09T10:27:43.772Z,40.20
2017-07-09T10:30:11.618Z,40.70
2017-07-09T10:32:39.438Z,40.00
2017-07-09T10:35:07.142Z,39.40
2017-07-09T10:37:35.024Z,39.20
2017-07-09T10:40:02.893Z,38.40
2017-07-09T10:42:30.761Z,36.60
2017-07-09T10:44:58.550Z,37.00
2017-07-09T10:47:26.392Z,35.10
2017-07-09T10:49:54.253Z,36.60
2017-07-09T10:52:22.122Z,36.70
2017-07-09T10:54:49.917Z,38.50
2017-07-09T10:57:17.695Z,38.40
2017-07-09T10:59:45.448Z,38.20
2017-07-09T11:02:13.174Z,37.80
2017-07-09T11:04:41.051Z,39.20
2017-07-09T11:07:08.921Z,39.00
2017-07-09T11:09:36.785Z,36.70
2017-07-09T11:12:04.653Z,35.40
2017-07-09T11:14:32.522Z,34.00
2017-07-09T11:17:00.295Z,36.20
2017-07-09T11:19:28.778Z,37.10
2017-07-09T11:21:57.261Z,37.80
2017-07-09T11:24:25.043Z,37.00
2017-07-09T11:26:52.855Z,38.20
2017-07-09T11:29:20.745Z,38.90
2017-07-09T11:31:48.589Z,37.00
2017-07-09T11:34:16.354Z,37.40
2017-07-09T11:36:44.221Z,36.70
2017-07-09T11:39:11.996Z,36.50
2017-07-09T11:41:39.742Z,36.30
2017-07-09T11:44:07.513Z,34.40
2017-07-09T11:46:35.384Z,36.80
2017-07-09T11:49:03.141Z,35.30
2017-07-09T11:51:30.997Z,34.50
2017-07-09T11:53:58.897Z,33.80
2017-07-09T11:56:26.687Z,34.80
2017-07-09T11:58:55.446Z,36.20
2017-07-09T12:01:23.316Z,36.10
2017-07-09T12:03:51.176Z,36.30
2017-07-09T12:06:21.011Z,33.70
2017-07-09T12:08:48.811Z,34.80
2017-07-09T12:11:16.441Z,35.60
2017-07-09T12:13:44.899Z,36.10
2017-07-09T12:16:12.647Z,36.00
2017-07-09T12:18:40.305Z,35.50
2017-07-09T12:21:08.072Z,33.30
2017-07-09T12:23:35.717Z,34.40
2017-07-09T12:26:03.496Z,32.30
2017-07-09T12:28:31.261Z,34.00
2017-07-09T12:30:59.028Z,34.70
2017-07-09T12:33:26.711Z,33.30
2017-07-09T12:35:54.454Z,33.90
2017-07-09T12:38:24.517Z,33.90
2017-07-09T12:40:54.739Z,33.20
2017-07-09T12:43:24.509Z,33.50
2017-07-09T12:45:55.308Z,34.40
2017-07-09T12:48:25.724Z,34.20
2017-07-09T12:50:53.633Z,33.60
2017-07-09T12:53:21.317Z,31.90
2017-07-09T12:55:48.984Z,33.00
2017-07-09T12:58:16.720Z,32.90
2017-07-09T13:00:44.587Z,34.60
2017-07-09T13:03:12.267Z,34.30
2017-07-09T13:05:40.015Z,34.10
2017-07-09T13:08:07.675Z,34.00
2017-07-09T13:10:35.498Z,33.80
2017-07-09T13:13:04.024Z,32.70
2017-07-09T13:15:31.745Z,32.70
2017-07-09T13:17:59.552Z,32.20
2017-07-09T13:20:27.249Z,32.40
2017-07-09T13:22:55.797Z,32.10
2017-07-09T13:25:23.973Z,32.00
2017-07-09T13:27:51.671Z,32.50
2017-07-09T13:30:20.219Z,32.60
2017-07-09T13:32:47.982Z,32.60
2017-07-09T13:35:16.589Z,31.50
2017-07-09T13:37:44.242Z,33.00
2017-07-09T13:40:12.912Z,32.10
2017-07-09T13:42:40.780Z,32.00
2017-07-09T13:45:08.438Z,32.30
2017-07-09T13:47:36.206Z,32.40
2017-07-09T13:50:03.967Z,32.50
2017-07-09T13:52:31.653Z,30.50
2017-07-09T13:54:59.395Z,31.00
2017-07-09T13:57:27.027Z,31.60
2017-07-09T13:59:54.735Z,30.20
2017-07-09T14:02:22.482Z,29.90
2017-07-09T14:04:50.349Z,30.20
2017-07-09T14:07:18.113Z,31.70
2017-07-09T14:09:45.983Z,31.50
2017-07-09T14:12:13.663Z,30.90
2017-07-09T14:14:41.300Z,31.30
2017-07-09T14:17:09.068Z,31.40
2017-07-09T14:19:36.936Z,31.70
2017-07-09T14:22:04.817Z,31.40
2017-07-09T14:24:32.692Z,31.50
2017-07-09T14:27:00.654Z,31.00
2017-07-09T14:29:28.457Z,31.00
2017-07-09T14:31:56.382Z,31.40
2017-07-09T14:34:24.253Z,30.50
2017-07-09T14:36:52.133Z,31.10
2017-07-09T14:39:20.092Z,31.40
2017-07-09T14:41:47.959Z,31.30
2017-07-09T14:44:15.932Z,30.00
2017-07-09T14:46:43.793Z,29.80
2017-07-09T14:49:11.660Z,30.30
2017-07-09T14:51:39.624Z,30.80
2017-07-09T14:54:07.497Z,30.90
2017-07-09T14:56:35.464Z,31.70
2017-07-09T14:59:03.325Z,31.70
2017-07-09T15:01:31.307Z,30.60
2017-07-09T15:03:59.164Z,30.60
2017-07-09T15:06:27.033Z,31.00
2017-07-09T15:08:54.899Z,32.90
2017-07-09T15:11:22.744Z,33.90
2017-07-09T15:13:50.511Z,33.70
2017-07-09T15:16:18.275Z,34.20
2017-07-09T15:18:46.144Z,33.40
2017-07-09T15:21:13.906Z,32.80
2017-07-09T15:23:41.674Z,31.90
2017-07-09T15:26:09.434Z,31.30
2017-07-09T15:28:37.121Z,31.90
2017-07-09T15:31:04.961Z,32.20
2017-07-09T15:33:32.599Z,30.90
2017-07-09T15:36:00.388Z,30.50
2017-07-09T15:38:28.152Z,30.10
2017-07-09T15:40:55.837Z,30.60
2017-07-09T15:43:23.579Z,30.90
2017-07-09T15:45:51.349Z,31.20
2017-07-09T15:48:19.211Z,31.00
2017-07-09T15:50:46.983Z,31.20
2017-07-09T15:53:14.843Z,30.80
2017-07-09T15:55:42.475Z,30.70
2017-07-09T15:58:10.266Z,30.90
2017-07-09T16:00:37.958Z,30.70
2017-07-09T16:03:05.796Z,30.60
2017-07-09T16:05:33.475Z,31.00
2017-07-09T16:08:01.962Z,30.90
2017-07-09T16:10:29.804Z,30.60
2017-07-09T16:12:57.474Z,31.20
2017-07-09T16:15:25.333Z,31.40
2017-07-09T16:17:53.097Z,31.60
2017-07-09T16:20:20.797Z,31.70
2017-07-09T16:22:48.629Z,32.10
2017-07-09T16:25:16.303Z,31.60
2017-07-09T16:27:43.980Z,32.00
2017-07-09T16:30:11.713Z,32.20
2017-07-09T16:32:39.375Z,31.80
2017-07-09T16:35:07.060Z,31.50
2017-07-09T16:37:34.804Z,31.90
2017-07-09T16:40:02.570Z,31.70
2017-07-09T16:42:30.330Z,32.40
2017-07-09T16:44:58.091Z,32.40
2017-07-09T16:47:25.771Z,33.70
2017-07-09T16:49:53.519Z,32.70
2017-07-09T16:52:21.285Z,32.60
2017-07-09T16:54:48.963Z,32.90
2017-07-09T16:57:16.810Z,33.00
2017-07-09T16:59:44.575Z,33.30
2017-07-09T17:02:12.342Z,33.60
2017-07-09T17:04:40.029Z,33.20
2017-07-09T17:07:07.764Z,33.60
2017-07-09T17:09:35.530Z,33.70
2017-07-09T17:12:03.292Z,33.60
2017-07-09T17:14:30.980Z,33.60
2017-07-09T17:16:58.646Z,34.10
2017-07-09T17:19:26.404Z,34.00
2017-07-09T17:21:54.147Z,34.60
2017-07-09T17:24:22.035Z,34.50
2017-07-09T17:26:50.001Z,34.60
2017-07-09T17:29:17.872Z,35.30
2017-07-09T17:31:45.832Z,35.20
2017-07-09T17:34:13.704Z,35.40
2017-07-09T17:36:41.572Z,35.40
2017-07-09T17:39:09.541Z,35.40
2017-07-09T17:41:37.505Z,35.70
2017-07-09T17:44:05.487Z,35.80
2017-07-09T17:46:33.344Z,36.80
2017-07-09T17:49:01.315Z,37.20
2017-07-09T17:51:29.071Z,37.60
2017-07-09T17:53:56.936Z,37.10
2017-07-09T17:56:24.792Z,37.50
2017-07-09T17:58:52.559Z,37.60
2017-07-09T18:01:21.009Z,37.60
2017-07-09T18:03:48.906Z,37.50
2017-07-09T18:06:18.435Z,38.00
2017-07-09T18:08:46.862Z,38.00
2017-07-09T18:11:14.758Z,37.90
2017-07-09T18:13:42.743Z,38.20
2017-07-09T18:16:10.489Z,38.30
2017-07-09T18:18:38.301Z,38.00
2017-07-09T18:21:06.686Z,39.20
2017-07-09T18:23:34.496Z,39.10
2017-07-09T18:26:02.262Z,39.50
2017-07-09T18:28:30.028Z,39.40
2017-07-09T18:30:57.712Z,39.40
2017-07-09T18:33:25.454Z,39.40
2017-07-09T18:35:53.321Z,39.20
2017-07-09T18:38:21.092Z,39.20
2017-07-09T18:40:48.849Z,39.50
2017-07-09T18:43:16.535Z,39.80
2017-07-09T18:45:44.274Z,40.00
2017-07-09T18:48:12.143Z,40.10
2017-07-09T18:50:39.904Z,40.10
2017-07-09T18:53:07.572Z,40.30
2017-07-09T18:55:35.203Z,40.40
2017-07-09T18:58:02.994Z,40.40
2017-07-09T19:00:30.862Z,40.60
2017-07-09T19:02:58.631Z,40.70
2017-07-09T19:05:26.389Z,40.70
2017-07-09T19:07:54.152Z,40.50
2017-07-09T19:10:22.019Z,40.50
2017-07-09T19:12:49.705Z,40.60
2017-07-09T19:15:17.336Z,40.60
2017-07-09T19:17:45.028Z,40.50
2017-07-09T19:20:12.688Z,40.60
2017-07-09T19:22:40.537Z,40.90
2017-07-09T19:25:08.299Z,41.10
2017-07-09T19:27:36.166Z,41.20
2017-07-09T19:30:03.934Z,41.20
2017-07-09T19:32:31.697Z,41.00
2017-07-09T19:34:59.458Z,41.40
2017-07-09T19:37:27.100Z,41.30
2017-07-09T19:39:54.884Z,41.40
2017-07-09T19:42:22.650Z,41.40
2017-07-09T19:44:50.515Z,41.50
2017-07-09T19:47:18.143Z,41.50
2017-07-09T19:49:45.942Z,41.60
2017-07-09T19:52:13.705Z,41.70
2017-07-09T19:54:41.339Z,41.70
2017-07-09T19:57:09.047Z,41.80
2017-07-09T19:59:36.796Z,41.80
2017-07-09T20:02:04.659Z,41.80
2017-07-09T20:04:32.349Z,42.00
2017-07-09T20:07:00.086Z,42.00
2017-07-09T20:09:27.783Z,42.10
2017-07-09T20:11:56.179Z,42.80
2017-07-09T20:14:24.712Z,42.90
2017-07-09T20:16:52.587Z,42.30
2017-07-09T20:19:20.255Z,42.40
2017-07-09T20:21:48.105Z,42.40
2017-07-09T20:24:15.872Z,43.00
2017-07-09T20:26:43.736Z,42.50
2017-07-09T20:29:11.424Z,42.50
2017-07-09T20:31:39.160Z,42.60
2017-07-09T20:34:06.949Z,42.70
2017-07-09T20:36:34.690Z,42.80
2017-07-09T20:39:02.455Z,42.90
2017-07-09T20:41:30.220Z,43.00
2017-07-09T20:43:57.862Z,43.00
2017-07-09T20:46:25.565Z,43.10
2017-07-09T20:48:53.306Z,43.30
2017-07-09T20:51:20.980Z,43.40
2017-07-09T20:53:48.648Z,43.20
2017-07-09T20:56:16.395Z,43.60
2017-07-09T20:58:44.081Z,43.60
2017-07-09T21:01:11.819Z,43.60
2017-07-09T21:03:39.689Z,43.80
2017-07-09T21:06:07.450Z,43.90
2017-07-09T21:08:35.216Z,43.90
2017-07-09T21:11:02.980Z,44.00
2017-07-09T21:13:30.745Z,44.10
2017-07-09T21:15:58.510Z,44.00
2017-07-09T21:18:27.006Z,43.80
2017-07-09T21:20:54.874Z,43.70
2017-07-09T21:23:22.745Z,44.20
2017-07-09T21:25:50.487Z,44.40
2017-07-09T21:28:18.285Z,44.40
2017-07-09T21:30:46.836Z,45.10
2017-07-09T21:33:14.701Z,44.50
2017-07-09T21:35:42.467Z,44.60
2017-07-09T21:38:10.174Z,44.70
2017-07-09T21:40:38.570Z,44.80
2017-07-09T21:43:06.303Z,44.70
2017-07-09T21:45:34.855Z,44.70
2017-07-09T21:48:02.532Z,44.50
2017-07-09T21:50:30.381Z,45.20
2017-07-09T21:52:58.039Z,45.00
2017-07-09T21:55:25.944Z,45.00
2017-07-09T21:57:54.390Z,44.60
2017-07-09T22:00:22.160Z,44.80
2017-07-09T22:02:50.024Z,44.90
2017-07-09T22:05:17.655Z,45.00
2017-07-09T22:07:45.363Z,45.30
2017-07-09T22:10:13.114Z,45.30
2017-07-09T22:12:40.790Z,45.80
2017-07-09T22:15:08.641Z,46.00
2017-07-09T22:17:36.301Z,46.00
2017-07-09T22:22:35.822Z,46.20
2017-07-09T22:25:03.507Z,46.20
2017-07-09T22:27:31.455Z,46.30
2017-07-09T22:29:59.222Z,46.30
2017-07-09T22:32:27.017Z,46.40
2017-07-09T22:34:55.489Z,46.80
2017-07-09T22:37:23.119Z,46.50
2017-07-09T22:39:50.889Z,46.50
2017-07-09T22:42:18.561Z,46.40
2017-07-09T22:44:46.341Z,46.30
2017-07-09T22:47:14.081Z,46.30
2017-07-09T22:49:41.950Z,46.30
2017-07-09T22:52:09.712Z,46.20
2017-07-09T22:54:37.681Z,46.10
2017-07-09T22:57:06.268Z,46.20
2017-07-09T22:59:34.134Z,46.10
2017-07-09T23:02:02.716Z,46.20
2017-07-09T23:04:30.400Z,46.10
2017-07-09T23:06:58.142Z,46.00
2017-07-09T23:09:25.909Z,46.20
2017-07-09T23:11:53.669Z,46.20
2017-07-09T23:14:21.347Z,46.20
2017-07-09T23:16:49.095Z,46.10
2017-07-09T23:19:16.861Z,46.30
2017-07-09T23:21:44.623Z,46.30
2017-07-09T23:24:12.390Z,46.30
2017-07-09T23:26:40.067Z,46.40
2017-07-09T23:29:07.817Z,46.20
2017-07-09T23:31:35.581Z,46.40
2017-07-09T23:34:03.364Z,46.50
2017-07-09T23:36:31.212Z,46.50
2017-07-09T23:38:58.884Z,46.70
2017-07-09T23:41:26.520Z,46.60
2017-07-09T23:43:54.413Z,46.70
2017-07-09T23:46:22.164Z,46.80
2017-07-09T23:48:49.931Z,46.90
2017-07-09T23:51:17.798Z,47.00
2017-07-09T23:53:45.573Z,47.20
2017-07-09T23:56:13.427Z,47.20
2017-07-09T23:58:41.071Z,47.20
